createdAt,value
2022-08-05T03:38:33.310Z,1.90
2022-08-05T03:41:46.670Z,1.67
2022-08-05T03:44:49.502Z,1.80
2022-08-05T03:47:56.827Z,1.50
2022-08-05T03:52:35.126Z,1.77
2022-08-05T03:56:04.122Z,2.08
2022-08-05T03:58:19.324Z,1.70
2022-08-05T04:01:23.934Z,2.33
2022-08-05T04:04:30.752Z,1.62
2022-08-05T04:07:34.436Z,1.75
2022-08-05T04:10:58.653Z,1.77
2022-08-05T04:14:01.698Z,1.55
2022-08-05T04:17:04.981Z,2.10
2022-08-05T04:20:18.080Z,1.90
2022-08-05T04:24:05.597Z,1.75
2022-08-05T04:26:50.612Z,2.30
2022-08-05T04:29:53.918Z,1.90
2022-08-05T04:32:56.571Z,2.05
2022-08-05T04:39:21.880Z,2.03
2022-08-05T04:42:27.833Z,1.95
2022-08-05T04:45:47.854Z,2.35
2022-08-05T04:48:52.017Z,2.17
2022-08-05T04:52:00.171Z,2.42
2022-08-05T04:55:14.234Z,2.03
2022-08-05T04:58:21.590Z,2.27
2022-08-05T05:02:05.471Z,2.72
2022-08-05T05:04:49.754Z,2.20
2022-08-05T05:07:56.383Z,1.80
2022-08-05T05:11:03.951Z,1.87
2022-08-05T05:14:08.727Z,1.60
2022-08-05T05:17:23.882Z,1.65
2022-08-05T05:20:28.542Z,1.77
2022-08-05T05:24:02.310Z,1.80
2022-08-05T05:26:54.583Z,1.75
2022-08-05T05:30:04.624Z,1.65
2022-08-05T05:33:16.092Z,1.83
2022-08-05T05:36:19.366Z,1.70
2022-08-05T05:39:22.611Z,1.95
2022-08-05T05:42:26.364Z,1.65
2022-08-05T05:45:29.760Z,1.50
2022-08-05T05:48:32.409Z,1.37
2022-08-05T05:51:50.664Z,1.98
2022-08-05T05:54:53.464Z,1.75
2022-08-05T05:57:56.307Z,1.40
2022-08-05T06:01:13.226Z,1.73
2022-08-05T06:04:18.495Z,1.50
2022-08-05T06:07:41.221Z,1.42
2022-08-05T06:10:49.223Z,1.50
2022-08-05T06:13:58.078Z,2.08
2022-08-05T06:17:22.655Z,1.62
2022-08-05T06:20:25.977Z,1.30
2022-08-05T06:23:43.989Z,1.40
2022-08-05T06:26:52.094Z,1.60
2022-08-05T06:30:04.254Z,2.05
2022-08-05T06:33:10.722Z,1.35
2022-08-05T06:36:13.725Z,1.45
2022-08-05T06:39:18.825Z,1.48
2022-08-05T06:42:25.322Z,1.65
2022-08-05T06:45:44.692Z,1.40
2022-08-05T06:48:58.793Z,1.50
2022-08-05T06:52:01.984Z,1.40
2022-08-05T06:55:05.829Z,1.30
2022-08-05T06:58:29.645Z,1.33
2022-08-05T07:01:33.154Z,1.20
2022-08-05T07:04:36.447Z,1.60
2022-08-05T07:07:43.814Z,1.62
2022-08-05T07:10:53.034Z,1.23
2022-08-05T07:14:20.793Z,1.35
2022-08-05T07:18:01.237Z,0.90
2022-08-05T07:20:55.981Z,1.08
2022-08-05T07:23:58.799Z,0.85
2022-08-05T07:27:04.560Z,0.93
2022-08-05T07:30:27.677Z,1.23
2022-08-05T07:33:36.501Z,1.50
2022-08-05T07:36:40.017Z,1.25
2022-08-05T07:40:27.082Z,1.15
2022-08-05T07:43:14.543Z,1.00
2022-08-05T07:46:29.510Z,1.02
2022-08-05T07:49:33.672Z,1.20
2022-08-05T07:52:46.709Z,1.10
2022-08-05T07:56:05.305Z,1.17
2022-08-05T07:59:13.176Z,1.05
2022-08-05T08:02:17.914Z,1.05
2022-08-05T08:05:21.144Z,1.00
2022-08-05T08:08:24.331Z,1.30
2022-08-05T08:11:47.824Z,1.90
2022-08-05T08:14:52.776Z,1.30
2022-08-05T08:17:55.671Z,1.30
2022-08-05T08:21:09.721Z,1.20
2022-08-05T08:24:20.423Z,1.10
2022-08-05T08:27:45.030Z,1.27
2022-08-05T08:30:50.686Z,1.17
2022-08-05T08:33:53.539Z,1.02
2022-08-05T08:37:03.150Z,1.30
2022-08-05T08:40:08.063Z,1.17
2022-08-05T08:44:56.485Z,1.15
2022-08-05T08:46:36.053Z,1.20
2022-08-05T08:50:23.369Z,1.25
2022-08-05T08:53:12.145Z,1.25
2022-08-05T08:56:16.509Z,1.20
2022-08-05T08:59:21.311Z,1.62
2022-08-05T09:02:25.536Z,1.60
2022-08-05T09:05:38.631Z,1.10
2022-08-05T09:08:52.585Z,1.08
2022-08-05T09:12:01.222Z,1.37
2022-08-05T09:15:12.207Z,1.20
2022-08-05T09:18:17.732Z,1.10
2022-08-05T09:22:17.761Z,1.40
2022-08-05T09:24:58.193Z,1.65
2022-08-05T09:28:21.228Z,1.58
2022-08-05T09:32:41.064Z,1.37
2022-08-05T09:34:52.647Z,1.02
2022-08-05T09:38:16.648Z,0.93
2022-08-05T09:41:19.783Z,1.60
2022-08-05T09:44:40.272Z,1.40
2022-08-05T09:47:55.227Z,1.23
2022-08-05T09:51:14.814Z,1.10
2022-08-05T09:54:31.022Z,1.33
2022-08-05T09:57:35.359Z,1.20
2022-08-05T10:00:53.769Z,1.30
2022-08-05T10:04:00.399Z,1.30
2022-08-05T10:07:19.632Z,1.50
2022-08-05T10:10:37.827Z,1.30
2022-08-05T10:13:47.144Z,1.65
2022-08-05T10:16:53.337Z,0.98
2022-08-05T10:20:03.795Z,1.40
2022-08-05T10:23:34.516Z,1.30
2022-08-05T10:26:51.415Z,1.30
2022-08-05T10:31:21.102Z,1.15
2022-08-05T10:33:18.054Z,1.15
2022-08-05T10:36:23.684Z,1.50
2022-08-05T10:40:03.888Z,1.20
2022-08-05T10:43:07.334Z,1.50
2022-08-05T10:46:18.589Z,1.42
2022-08-05T10:49:33.364Z,1.35
2022-08-05T10:52:58.512Z,1.35
2022-08-05T10:56:21.177Z,1.30
2022-08-05T11:00:02.874Z,1.77
2022-08-05T11:02:59.072Z,1.17
2022-08-05T11:06:21.708Z,1.25
2022-08-05T11:09:46.767Z,1.37
2022-08-05T11:12:54.398Z,1.25
2022-08-05T11:16:21.625Z,1.27
2022-08-05T11:20:10.418Z,1.17
2022-08-05T11:22:58.054Z,1.30
2022-08-05T11:26:09.173Z,1.50
2022-08-05T11:29:42.681Z,1.30
2022-08-05T11:36:07.983Z,1.33
2022-08-05T11:39:14.768Z,1.27
2022-08-05T11:42:28.192Z,1.55
2022-08-05T11:46:23.477Z,1.62
2022-08-05T11:48:54.887Z,1.23
2022-08-05T11:51:57.904Z,1.65
2022-08-05T11:55:07.519Z,1.42
2022-08-05T11:58:11.995Z,1.30
2022-08-05T12:01:19.176Z,1.48
2022-08-05T12:04:22.855Z,1.25
2022-08-05T12:08:03.823Z,1.30
2022-08-05T12:11:05.727Z,1.25
2022-08-05T12:14:10.266Z,1.48
2022-08-05T12:18:00.805Z,1.17
2022-08-05T12:20:38.709Z,1.42
2022-08-05T12:23:57.454Z,1.70
2022-08-05T12:27:09.456Z,1.60
2022-08-05T12:30:15.590Z,1.30
2022-08-05T12:33:27.498Z,1.40
2022-08-05T12:36:40.030Z,1.17
2022-08-05T12:39:51.100Z,1.10
2022-08-05T12:42:55.956Z,1.10
2022-08-05T12:45:58.520Z,0.90
2022-08-05T12:49:05.870Z,1.05
2022-08-05T12:52:25.308Z,1.30
2022-08-05T12:55:32.911Z,1.30
2022-08-05T12:58:51.343Z,1.40
2022-08-05T13:02:07.859Z,1.92
2022-08-05T13:05:14.473Z,1.50
2022-08-05T13:08:18.503Z,1.55
2022-08-05T13:11:53.807Z,1.70
2022-08-05T13:15:13.715Z,1.55
2022-08-05T13:18:21.071Z,2.00
2022-08-05T13:21:28.319Z,1.95
2022-08-05T13:24:57.576Z,2.00
2022-08-05T13:28:05.071Z,2.20
2022-08-05T13:31:13.956Z,2.40
2022-08-05T13:34:22.809Z,2.25
2022-08-05T13:37:34.554Z,2.30
2022-08-05T13:40:51.362Z,2.47
2022-08-05T13:43:55.431Z,2.60
2022-08-05T13:47:02.456Z,2.50
2022-08-05T13:50:09.619Z,2.72
2022-08-05T13:53:15.798Z,2.90
2022-08-05T13:56:19.346Z,2.70
2022-08-05T13:59:24.468Z,2.90
2022-08-05T14:02:29.824Z,2.62
2022-08-05T14:06:24.594Z,2.50
2022-08-05T14:08:56.748Z,2.62
2022-08-05T14:12:17.157Z,3.40
2022-08-05T14:16:04.633Z,2.95
2022-08-05T14:18:43.785Z,3.12
2022-08-05T14:22:10.156Z,2.97
2022-08-05T14:25:21.967Z,3.12
2022-08-05T14:28:26.239Z,3.28
2022-08-05T14:31:54.232Z,3.20
2022-08-05T14:34:53.231Z,3.20
2022-08-05T14:37:57.533Z,3.20
2022-08-05T14:41:06.915Z,2.80
2022-08-05T14:44:20.392Z,2.70
2022-08-05T14:47:58.401Z,2.62
2022-08-05T14:50:46.792Z,2.58
2022-08-05T14:54:26.390Z,2.50
2022-08-05T14:57:14.276Z,2.50
2022-08-05T15:00:17.810Z,2.42
2022-08-05T15:03:23.064Z,2.50
2022-08-05T15:06:27.985Z,2.53
2022-08-05T15:09:52.875Z,2.83
2022-08-05T15:13:03.688Z,2.80
